Clara City, MN

3:05 AM CDT on September 02, 2015 (GMT -0500)
SW of Prinsburg | | Change Station
CLOSE
Current Station
Personal Weather Station
Location: Prinsburg, MN
Elevation: 1071 ft
Nearby Weather Stations

Elev 1071 ft 44.91 °N, 95.23 °W | Updated 1 minute ago

Partly Cloudy
Partly Cloudy
68.1 °F
Feels Like 68.1 °F
N
6.0
Wind Variable Wind from SSE
Gusts 10.5 mph

Today
High -- | Low -- °F
--% Chance of Precip.
Yesterday
High -- | Low -- °F
Precip. -- in
6:44 AM 7:57 PM
Waning Gibbous, 82% visible
Pressure 29.91 in
Visibility 10.0 miles
Clouds Overcast 12000 ft
Dew Point 56 °F
Humidity 66%
Rainfall 0.00 in
Snow Depth Not available.
UV 0 out of 12
Pollen 9.80 out of 12
Air Quality Not available.
Flu Activity Not available.
METAR KBDH 020755Z AUTO 15007KT 10SM OVC120 21/19 A2991 RMK AO2 LTG DSNT E THRU SW
Pressure 29.91 in
Visibility 10.0 miles
Clouds Overcast 12000 ft
Dew Point 56 °F
Humidity 66%
Rainfall 0.00 in
Snow Depth Not available.
UV 0 out of 12
Pollen 9.80 out of 12
Air Quality Not available.
Flu Activity Not available.
METAR KBDH 020755Z AUTO 15007KT 10SM OVC120 21/19 A2991 RMK AO2 LTG DSNT E THRU SW

10-Day Weather Forecast

×

Almanac

Astronomy

Sep. 02, 2015 Rise Set
Actual Time
Civil Twilight
Nautical Twilight
Astronomical Twilight
Moon
Length of Visible Light
Length of Day
Tomorrow will be .
, % of the Moon is Illuminated

Today's Extremes

State Highs State Lows

Community

WunderPhotos

Upload Photos

1,851,727 photos uploaded!

WunderBlogs® & News

Nearby

Air Quality

  Air Quality AQ Index Pollutant
Not available.

Snow Depth

Station Depth Elevation

Earthquake Activity

City Distance Mag. Time & Date
Minimum magnitude displayed is 2.5.

Coastal Water Temperatures

Place Temperature

Stations

Nearby Weather Stations

Station Location Temp. Windchill Dew Point Humidity Wind Precip. Elev Updated Type